^^
Datos históricos de la estación: Murcia-Puente Tocinos
Diario Informe para Septiembre 22, 2021 Unidades:  Ambas    Ingés   Métrico
Diario Semanal Mensual Anual
  Máxima: Mínima: Promedio:
Temperatura: 79.2 °F /  26.2 °C 65.8 °F /  18.8 °C 72.5 °F /  22.5 °C
Punto de rocio: 64.9 °F /  18.3 °C 57.7 °F /  14.3 °C 60.6 °F /  15.9 °C
Humedad: 88.7% 48.2% 68%
Velocidad viento: 7.6mph /  12.2km/h - 4.3mph /  7km/h
Racha viento: 14mph /  22.5km/h - -
Viento- - Sur
Presión: 30.1 in /  1018.6 hPa 29.9 in /  1013.0 hPa -
Precipitación: 0 in /  0.0 mm    
 
 
Tabla de datos para Septiembre 22, 2021
Hora Temperatura Punto de rocio Presión Viento Velocidad viento Racha viento Humedad Intensidad lluvia(por hora) Nubes
00:04 67.3 °F /  19.6 °C 63.3 °F /  17.4 °C 30.1in /  1018.6hPa Oeste 4.3mph /  6.9km/h 7.4mph /  11.9km/h 87% 0.01in /  0.3mm
00:09 66.9 °F /  19.4 °C 63 °F /  17.2 °C 30.1in /  1018.6hPa Oeste 4.4mph /  7.1km/h 7.6mph /  12.2km/h 87% 0.01in /  0.3mm
00:14 66.7 °F /  19.3 °C 63.1 °F /  17.3 °C 30.1in /  1018.6hPa Oeste 4.7mph /  7.6km/h 8.1mph /  13km/h 88% 0.01in /  0.3mm
00:19 66.9 °F /  19.4 °C 63.1 °F /  17.3 °C 30.1in /  1018.6hPa OSO 4.7mph /  7.6km/h 8.1mph /  13km/h 88% 0.01in /  0.3mm
00:24 66.9 °F /  19.4 °C 63.1 °F /  17.3 °C 30.1in /  1018.5hPa Oeste 4.7mph /  7.6km/h 9.2mph /  14.8km/h 88% 0.01in /  0.3mm
00:29 66.9 °F /  19.4 °C 63.1 °F /  17.3 °C 30.1in /  1018.5hPa Oeste 5.2mph /  8.3km/h 11.8mph /  19km/h 88% 0.01in /  0.3mm
00:34 66.9 °F /  19.4 °C 63.1 °F /  17.3 °C 30.1in /  1018.5hPa Oeste 6.2mph /  10km/h 9.7mph /  15.6km/h 88% 0.01in /  0.3mm
00:39 66.9 °F /  19.4 °C 63.1 °F /  17.3 °C 30.1in /  1018.4hPa Oeste 5.9mph /  9.5km/h 9.2mph /  14.8km/h 88% 0.01in /  0.3mm
00:44 66.7 °F /  19.3 °C 63.1 °F /  17.3 °C 30.1in /  1018.4hPa Oeste 5.2mph /  8.4km/h 6.9mph /  11.1km/h 88% 0.01in /  0.3mm
00:49 66.7 °F /  19.3 °C 63.1 °F /  17.3 °C 30.1in /  1018.4hPa Oeste 5mph /  8km/h 8.1mph /  13km/h 88% 0.01in /  0.3mm
00:54 66.6 °F /  19.2 °C 63 °F /  17.2 °C 30.1in /  1018.3hPa Oeste 4.3mph /  6.9km/h 6.9mph /  11.1km/h 88% 0.01in /  0.3mm
00:59 66.6 °F /  19.2 °C 63 °F /  17.2 °C 30.1in /  1018.3hPa Oeste 3.9mph /  6.3km/h 5.2mph /  8.4km/h 88% 0in /  0.0mm
01:04 66.6 °F /  19.2 °C 63 °F /  17.2 °C 30.1in /  1018.3hPa SSE 3.1mph /  5km/h 3.6mph /  5.8km/h 88% 0in /  0.0mm
01:09 66.6 °F /  19.2 °C 63 °F /  17.2 °C 30.1in /  1018.3hPa SSE 2.7mph /  4.4km/h 3.5mph /  5.6km/h 88% 0in /  0.0mm
01:14 66.6 °F /  19.2 °C 63 °F /  17.2 °C 30.1in /  1018.3hPa SSE 1.8mph /  2.9km/h 5.9mph /  9.5km/h 88% 0in /  0.0mm
01:19 66.6 °F /  19.2 °C 63 °F /  17.2 °C 30.1in /  1018.3hPa SSE 2.2mph /  3.5km/h 6.2mph /  10km/h 88% 0in /  0.0mm
01:24 66.7 °F /  19.3 °C 63.1 °F /  17.3 °C 30.1in /  1018.3hPa SSE 2.9mph /  4.7km/h 5.2mph /  8.4km/h 88% 0in /  0.0mm
01:29 66.6 °F /  19.2 °C 63 °F /  17.2 °C 30.1in /  1018.3hPa SSO 3.1mph /  5km/h 5.2mph /  8.4km/h 88% 0in /  0.0mm
01:34 66.6 °F /  19.2 °C 63 °F /  17.2 °C 30.1in /  1018.3hPa SSO 3.6mph /  5.8km/h 5.8mph /  9.3km/h 88% 0in /  0.0mm
01:39 66.6 °F /  19.2 °C 63 °F /  17.2 °C 30.1in /  1018.3hPa SSO 3.7mph /  6km/h 5.8mph /  9.3km/h 88.3% 0in /  0.0mm
01:44 66.7 °F /  19.3 °C 63.3 °F /  17.4 °C 30.1in /  1018.3hPa SSO 4mph /  6.4km/h 5.2mph /  8.4km/h 88.7% 0in /  0.0mm
01:49 66.7 °F /  19.3 °C 63.1 °F /  17.3 °C 30.1in /  1018.3hPa SO 3.7mph /  6km/h 4.7mph /  7.6km/h 88% 0in /  0.0mm
01:54 66.7 °F /  19.3 °C 63.1 °F /  17.3 °C 30.1in /  1018.2hPa OSO 3.1mph /  5km/h 5.2mph /  8.4km/h 88% 0in /  0.0mm
01:59 66.7 °F /  19.3 °C 62.8 °F /  17.1 °C 30.1in /  1018.2hPa OSO 3.1mph /  5km/h 5.2mph /  8.4km/h 87.3% 0in /  0.0mm
02:04 66.7 °F /  19.3 °C 62.8 °F /  17.1 °C 30.1in /  1018.2hPa OSO 3.1mph /  5km/h 4mph /  6.4km/h 87% 0in /  0.0mm
02:09 66.9 °F /  19.4 °C 62.6 °F /  17 °C 30.1in /  1018.1hPa OSO 2.9mph /  4.6km/h 5.4mph /  8.7km/h 86.1% 0in /  0.0mm
02:14 66.9 °F /  19.4 °C 62.6 °F /  17 °C 30.1in /  1018.1hPa SO 2.4mph /  3.9km/h 5.8mph /  9.3km/h 86% 0in /  0.0mm
02:19 67.1 °F /  19.5 °C 62.6 °F /  17 °C 30.1in /  1018.1hPa SO 2.6mph /  4.2km/h 5.2mph /  8.4km/h 85.6% 0in /  0.0mm
02:24 67.3 °F /  19.6 °C 62.6 °F /  17 °C 30.1in /  1018.1hPa SO 3.1mph /  5km/h 4.6mph /  7.4km/h 85% 0in /  0.0mm
02:29 67.3 °F /  19.6 °C 62.6 °F /  17 °C 30.1in /  1018.1hPa OSO 3mph /  4.9km/h 4.7mph /  7.6km/h 85% 0in /  0.0mm
02:34 67.5 °F /  19.7 °C 62.8 °F /  17.1 °C 30.1in /  1018.1hPa SO 2.9mph /  4.7km/h 6.2mph /  10km/h 85% 0in /  0.0mm
02:39 67.3 °F /  19.6 °C 62.4 °F /  16.9 °C 30.1in /  1017.8hPa SO 3.2mph /  5.2km/h 8.1mph /  13km/h 84.4% 0in /  0.0mm
02:44 67.3 °F /  19.6 °C 62.4 °F /  16.9 °C 30.1in /  1017.8hPa SO 4mph /  6.4km/h 5.8mph /  9.3km/h 84.4% 0in /  0.0mm
02:49 67.3 °F /  19.6 °C 62.2 °F /  16.8 °C 30.1in /  1017.8hPa OSO 3.9mph /  6.2km/h 6.9mph /  11.1km/h 84.1% 0in /  0.0mm
02:54 67.1 °F /  19.5 °C 61.9 °F /  16.6 °C 30.1in /  1017.7hPa OSO 3.6mph /  5.8km/h 6.9mph /  11.1km/h 83.4% 0in /  0.0mm
02:59 67.1 °F /  19.5 °C 61.5 °F /  16.4 °C 30.1in /  1017.7hPa SO 3.9mph /  6.2km/h 7.4mph /  11.9km/h 82.5% 0in /  0.0mm
03:04 66.9 °F /  19.4 °C 61.2 °F /  16.2 °C 30.1in /  1017.7hPa SO 4.3mph /  6.9km/h 8.1mph /  13km/h 81.5% 0in /  0.0mm
03:09 66.9 °F /  19.4 °C 61 °F /  16.1 °C 30.1in /  1017.7hPa OSO 4.2mph /  6.8km/h 7.4mph /  11.9km/h 81% 0in /  0.0mm
03:14 67.1 °F /  19.5 °C 61.2 °F /  16.2 °C 30.1in /  1017.7hPa OSO 4mph /  6.4km/h 6.9mph /  11.1km/h 81.1% 0in /  0.0mm
03:19 67.3 °F /  19.6 °C 61.5 °F /  16.4 °C 30.1in /  1017.7hPa SO 4mph /  6.4km/h 6.2mph /  10km/h 81.9% 0in /  0.0mm
03:24 67.3 °F /  19.6 °C 61.2 °F /  16.2 °C 30.1in /  1017.5hPa OSO 4mph /  6.4km/h 5.9mph /  9.5km/h 81% 0in /  0.0mm
03:29 67.3 °F /  19.6 °C 61.3 °F /  16.3 °C 30.1in /  1017.5hPa SO 3.9mph /  6.2km/h 5.8mph /  9.3km/h 81.5% 0in /  0.0mm
03:34 67.3 °F /  19.6 °C 61.7 °F /  16.5 °C 30.1in /  1017.5hPa SO 3.6mph /  5.8km/h 7.4mph /  11.9km/h 82% 0in /  0.0mm
03:39 67.3 °F /  19.6 °C 61.5 °F /  16.4 °C 30in /  1017.2hPa SO 3.6mph /  5.8km/h 6.9mph /  11.1km/h 82% 0in /  0.0mm
03:44 67.3 °F /  19.6 °C 61.5 °F /  16.4 °C 30in /  1017.2hPa SO 3.6mph /  5.8km/h 6.4mph /  10.3km/h 82% 0in /  0.0mm
03:49 67.1 °F /  19.5 °C 61.5 °F /  16.4 °C 30in /  1017.2hPa SSO 3.6mph /  5.8km/h 6.9mph /  11.1km/h 82% 0in /  0.0mm
03:54 67.1 °F /  19.5 °C 61.3 °F /  16.3 °C 30in /  1017.0hPa SO 3.6mph /  5.8km/h 5.4mph /  8.7km/h 82% 0in /  0.0mm
03:59 67.1 °F /  19.5 °C 61.3 °F /  16.3 °C 30in /  1017.0hPa SO 3.4mph /  5.5km/h 6.2mph /  10km/h 82% 0in /  0.0mm
04:04 66.9 °F /  19.4 °C 61.3 °F /  16.3 °C 30in /  1017.1hPa SSO 3.1mph /  5km/h 5.9mph /  9.5km/h 82% 0in /  0.0mm
04:09 66.9 °F /  19.4 °C 61.2 °F /  16.2 °C 30in /  1017.1hPa SSO 3.4mph /  5.4km/h 6.9mph /  11.1km/h 81.7% 0in /  0.0mm
04:14 66.9 °F /  19.4 °C 61 °F /  16.1 °C 30in /  1017.1hPa SO 4mph /  6.4km/h 6.9mph /  11.1km/h 81% 0in /  0.0mm
04:19 66.9 °F /  19.4 °C 60.6 °F /  15.9 °C 30in /  1017.2hPa OSO 4.1mph /  6.6km/h 6.9mph /  11.1km/h 80.4% 0in /  0.0mm
04:24 66.9 °F /  19.4 °C 60.4 °F /  15.8 °C 30in /  1017.2hPa OSO 4.3mph /  6.9km/h 6.9mph /  11.1km/h 79.9% 0in /  0.0mm
04:29 66.9 °F /  19.4 °C 60.3 °F /  15.7 °C 30in /  1017.2hPa OSO 4.2mph /  6.8km/h 5.9mph /  9.5km/h 79.1% 0in /  0.0mm
04:34 66.9 °F /  19.4 °C 60.3 °F /  15.7 °C 30in /  1017.2hPa OSO 4mph /  6.4km/h 6.9mph /  11.1km/h 79% 0in /  0.0mm
04:39 66.9 °F /  19.4 °C 60.3 °F /  15.7 °C 30in /  1017.2hPa OSO 4.1mph /  6.6km/h 8.1mph /  13km/h 79% 0in /  0.0mm
04:44 66.9 °F /  19.4 °C 60.4 °F /  15.8 °C 30in /  1017.2hPa OSO 4.3mph /  6.9km/h 8.5mph /  13.7km/h 79.8% 0in /  0.0mm
04:49 66.9 °F /  19.4 °C 60.4 °F /  15.8 °C 30in /  1017.2hPa OSO 4.4mph /  7.1km/h 8.1mph /  13km/h 80% 0in /  0.0mm
04:54 66.9 °F /  19.4 °C 60.4 °F /  15.8 °C 30in /  1017.0hPa SO 4.7mph /  7.6km/h 9.2mph /  14.8km/h 79.6% 0in /  0.0mm
04:59 66.9 °F /  19.4 °C 60.4 °F /  15.8 °C 30in /  1017.0hPa SO 5mph /  8km/h 6.9mph /  11.1km/h 79.9% 0in /  0.0mm
05:04 66.9 °F /  19.4 °C 60.4 °F /  15.8 °C 30in /  1017.0hPa SSO 5.4mph /  8.7km/h 6.9mph /  11.1km/h 80% 0in /  0.0mm
05:09 66.9 °F /  19.4 °C 60.4 °F /  15.8 °C 30in /  1016.9hPa SO 5mph /  8.1km/h 6.9mph /  11.1km/h 80% 0in /  0.0mm
05:14 66.7 °F /  19.3 °C 60.4 °F /  15.8 °C 30in /  1016.9hPa SO 4.3mph /  6.9km/h 6.9mph /  11.1km/h 80% 0in /  0.0mm
05:19 66.7 °F /  19.3 °C 60.4 °F /  15.8 °C 30in /  1016.9hPa SO 4.1mph /  6.6km/h 8.1mph /  13km/h 80% 0in /  0.0mm
05:24 66.7 °F /  19.3 °C 60.3 °F /  15.7 °C 30in /  1016.9hPa SO 3.6mph /  5.8km/h 8.1mph /  13km/h 79.4% 0in /  0.0mm
05:29 66.7 °F /  19.3 °C 60.1 °F /  15.6 °C 30in /  1016.9hPa OSO 4.1mph /  6.6km/h 8.5mph /  13.7km/h 79% 0in /  0.0mm
05:34 66.7 °F /  19.3 °C 60.1 °F /  15.6 °C 30in /  1016.9hPa OSO 5.2mph /  8.4km/h 7.6mph /  12.2km/h 79% 0in /  0.0mm
05:39 66.7 °F /  19.3 °C 60.3 °F /  15.7 °C 30in /  1016.8hPa OSO 4.8mph /  7.8km/h 8.1mph /  13km/h 79.4% 0in /  0.0mm
05:44 66.7 °F /  19.3 °C 60.4 °F /  15.8 °C 30in /  1016.8hPa OSO 4mph /  6.4km/h 6.9mph /  11.1km/h 80% 0in /  0.0mm
05:49 66.6 °F /  19.2 °C 60.3 °F /  15.7 °C 30in /  1016.8hPa OSO 4.1mph /  6.6km/h 7.4mph /  11.9km/h 80% 0in /  0.0mm
05:54 66.6 °F /  19.2 °C 60.3 °F /  15.7 °C 30in /  1016.7hPa OSO 4.3mph /  6.9km/h 8.1mph /  13km/h 80% 0in /  0.0mm
05:59 66.6 °F /  19.2 °C 60.3 °F /  15.7 °C 30in /  1016.7hPa OSO 4.6mph /  7.4km/h 8.1mph /  13km/h 80% 0in /  0.0mm
06:04 66.6 °F /  19.2 °C 60.3 °F /  15.7 °C 30in /  1016.7hPa OSO 5.2mph /  8.4km/h 6.9mph /  11.1km/h 80% 0in /  0.0mm
06:05 66.6 °F /  19.2 °C 60.3 °F /  15.7 °C 30in /  1016.6hPa SO 5.2mph /  8.4km/h 5.9mph /  9.5km/h 80% 0in /  0.0mm
06:14 66.4 °F /  19.1 °C 60.1 °F /  15.6 °C 30in /  1016.6hPa SSO 4mph /  6.4km/h 6.9mph /  11.1km/h 80% 0in /  0.0mm
06:19 66.4 °F /  19.1 °C 59.9 °F /  15.5 °C 30in /  1016.6hPa SO 4mph /  6.4km/h 7.4mph /  11.9km/h 80% 0in /  0.0mm
06:24 66.2 °F /  19 °C 59.7 °F /  15.4 °C 30in /  1016.6hPa SO 4mph /  6.4km/h 8.1mph /  13km/h 80% 0in /  0.0mm
06:29 66.2 °F /  19 °C 59.7 °F /  15.4 °C 30in /  1016.6hPa SO 4.3mph /  7km/h 8.1mph /  13km/h 80% 0in /  0.0mm
06:34 66.2 °F /  19 °C 59.7 °F /  15.4 °C 30in /  1016.7hPa SO 5.2mph /  8.4km/h 6.9mph /  11.1km/h 80% 0in /  0.0mm
06:39 66.4 °F /  19.1 °C 59.9 °F /  15.5 °C 30in /  1016.7hPa SSO 4.9mph /  7.9km/h 6.9mph /  11.1km/h 80% 0in /  0.0mm
06:44 66.4 °F /  19.1 °C 60.1 °F /  15.6 °C 30in /  1016.7hPa SSO 4.3mph /  6.9km/h 6.9mph /  11.1km/h 80% 0in /  0.0mm
06:49 66.6 °F /  19.2 °C 60.4 °F /  15.8 °C 30in /  1016.7hPa SO 4.3mph /  6.9km/h 5.8mph /  9.3km/h 80.9% 0in /  0.0mm
06:54 66.6 °F /  19.2 °C 60.4 °F /  15.8 °C 30in /  1016.7hPa SO 4.3mph /  6.9km/h 6.9mph /  11.1km/h 81% 0in /  0.0mm
06:59 66.4 °F /  19.1 °C 60.4 °F /  15.8 °C 30in /  1016.7hPa SSO 4mph /  6.5km/h 6.2mph /  10km/h 81% 0in /  0.0mm
07:04 66.4 °F /  19.1 °C 60.4 °F /  15.8 °C 30in /  1016.7hPa SO 3.6mph /  5.8km/h 5.9mph /  9.5km/h 81% 0in /  0.0mm
07:09 66.4 °F /  19.1 °C 60.4 °F /  15.8 °C 30in /  1016.6hPa SO 3.6mph /  5.8km/h 5.9mph /  9.5km/h 81% 0in /  0.0mm
07:14 66.2 °F /  19 °C 60.3 °F /  15.7 °C 30in /  1016.6hPa SO 3.6mph /  5.8km/h 6.2mph /  10km/h 81% 0in /  0.0mm
07:19 66.2 °F /  19 °C 60.4 °F /  15.8 °C 30in /  1016.7hPa SO 3.7mph /  6km/h 5.8mph /  9.3km/h 81.7% 0in /  0.0mm
07:24 66 °F /  18.9 °C 60.1 °F /  15.6 °C 30in /  1016.7hPa SO 4mph /  6.4km/h 5.8mph /  9.3km/h 81.1% 0in /  0.0mm
07:29 66 °F /  18.9 °C 60.1 °F /  15.6 °C 30in /  1016.7hPa SO 3.9mph /  6.3km/h 5.8mph /  9.3km/h 81% 0in /  0.0mm
07:34 66 °F /  18.9 °C 60.1 °F /  15.6 °C 30in /  1016.7hPa SO 3.6mph /  5.8km/h 5.2mph /  8.4km/h 81% 0in /  0.0mm
07:39 66 °F /  18.9 °C 60.1 °F /  15.6 °C 30in /  1016.6hPa SO 3.4mph /  5.5km/h 5.2mph /  8.4km/h 81% 0in /  0.0mm
07:44 66 °F /  18.9 °C 60.1 °F /  15.6 °C 30in /  1016.6hPa SO 3.1mph /  5km/h 5.2mph /  8.4km/h 81% 0in /  0.0mm
07:49 66 °F /  18.9 °C 60.1 °F /  15.6 °C 30in /  1016.7hPa SSO 3.2mph /  5.2km/h 6.9mph /  11.1km/h 81% 0in /  0.0mm
07:54 65.8 °F /  18.8 °C 59.9 °F /  15.5 °C 30in /  1016.7hPa SO 3.6mph /  5.8km/h 6.9mph /  11.1km/h 81% 0in /  0.0mm
07:59 65.8 °F /  18.8 °C 59.7 °F /  15.4 °C 30in /  1016.7hPa SO 3.6mph /  5.8km/h 5.9mph /  9.5km/h 81% 0in /  0.0mm
08:04 65.8 °F /  18.8 °C 60.1 °F /  15.6 °C 30in /  1016.7hPa SSO 3.6mph /  5.8km/h 5.2mph /  8.4km/h 81.9% 0in /  0.0mm
08:09 65.8 °F /  18.8 °C 59.7 °F /  15.4 °C 30in /  1016.7hPa SSO 3.4mph /  5.5km/h 5.2mph /  8.4km/h 81% 0in /  0.0mm
08:14 65.8 °F /  18.8 °C 59.7 °F /  15.4 °C 30in /  1016.7hPa Sur 3.1mph /  5km/h 5.9mph /  9.5km/h 81% 0in /  0.0mm
08:19 65.8 °F /  18.8 °C 59.7 °F /  15.4 °C 30in /  1016.9hPa SSO 3.3mph /  5.3km/h 5.8mph /  9.3km/h 81% 0in /  0.0mm
08:24 65.8 °F /  18.8 °C 59.9 °F /  15.5 °C 30in /  1016.9hPa Sur 3.6mph /  5.8km/h 5.9mph /  9.5km/h 81% 0in /  0.0mm
08:29 66 °F /  18.9 °C 59.9 °F /  15.5 °C 30in /  1016.9hPa Sur 3.7mph /  6km/h 6.9mph /  11.1km/h 81% 0in /  0.0mm
08:34 66 °F /  18.9 °C 60.1 °F /  15.6 °C 30in /  1016.9hPa SSO 4mph /  6.4km/h 6.2mph /  10km/h 81% 0in /  0.0mm
08:39 66.2 °F /  19 °C 60.3 °F /  15.7 °C 30in /  1016.8hPa SO 4mph /  6.4km/h 8.5mph /  13.7km/h 81% 0in /  0.0mm
08:44 66.6 °F /  19.2 °C 60.1 °F /  15.6 °C 30in /  1016.8hPa SO 4mph /  6.4km/h 9.2mph /  14.8km/h 79.8% 0in /  0.0mm
08:49 66.7 °F /  19.3 °C 59.9 °F /  15.5 °C 30in /  1016.8hPa SSO 4.3mph /  7km/h 8.5mph /  13.7km/h 78.6% 0in /  0.0mm
08:54 66.9 °F /  19.4 °C 59.7 °F /  15.4 °C 30in /  1016.8hPa SO 5.2mph /  8.4km/h 6.9mph /  11.1km/h 78% 0in /  0.0mm
11:29 72.9 °F /  22.7 °C 59.2 °F /  15.1 °C 30in /  1017.0hPa Oeste 4.8mph /  7.8km/h 9.2mph /  14.8km/h 62.2% 0in /  0.0mm
11:34 73 °F /  22.8 °C 59.2 °F /  15.1 °C 30in /  1017.0hPa OSO 4.3mph /  6.9km/h 7.4mph /  11.9km/h 61.9% 0in /  0.0mm
11:39 73.6 °F /  23.1 °C 58.8 °F /  14.9 °C 30in /  1017.0hPa Oeste 4.1mph /  6.6km/h 8.5mph /  13.7km/h 60.3% 0in /  0.0mm
11:44 73.4 °F /  23 °C 59 °F /  15 °C 30in /  1017.0hPa SO 3.6mph /  5.8km/h 8.5mph /  13.7km/h 60.6% 0in /  0.0mm
11:49 73.6 °F /  23.1 °C 59.2 °F /  15.1 °C 30in /  1017.0hPa OSO 3.7mph /  6km/h 5.9mph /  9.5km/h 60.8% 0in /  0.0mm
11:54 73.9 °F /  23.3 °C 59.2 °F /  15.1 °C 30in /  1017.0hPa SSO 4mph /  6.4km/h 10.2mph /  16.4km/h 60.2% 0in /  0.0mm
11:59 74.3 °F /  23.5 °C 59.4 °F /  15.2 °C 30in /  1016.8hPa Oeste 4.2mph /  6.8km/h 10.4mph /  16.7km/h 59.5% 0in /  0.0mm
12:04 74.5 °F /  23.6 °C 59 °F /  15 °C 30in /  1016.8hPa OSO 4.7mph /  7.6km/h 9.2mph /  14.8km/h 58.4% 0in /  0.0mm
12:09 74.7 °F /  23.7 °C 59 °F /  15 °C 30in /  1016.8hPa NO 4.7mph /  7.6km/h 9.2mph /  14.8km/h 58% 0in /  0.0mm
12:14 75.4 °F /  24.1 °C 58.8 °F /  14.9 °C 30in /  1016.4hPa NNE 4.7mph /  7.6km/h 7.4mph /  11.9km/h 56.6% 0in /  0.0mm
12:19 75.6 °F /  24.2 °C 57.7 °F /  14.3 °C 30in /  1016.4hPa NNO 4.3mph /  7km/h 6.9mph /  11.1km/h 54.1% 0in /  0.0mm
12:24 76.1 °F /  24.5 °C 58.1 °F /  14.5 °C 30in /  1016.4hPa NNE 3.6mph /  5.8km/h 8.1mph /  13km/h 53.7% 0in /  0.0mm
12:29 76.1 °F /  24.5 °C 57.9 °F /  14.4 °C 30in /  1016.2hPa NNE 3.7mph /  6km/h 7.4mph /  11.9km/h 53.4% 0in /  0.0mm
12:34 76.5 °F /  24.7 °C 58.3 °F /  14.6 °C 30in /  1016.2hPa NNE 4mph /  6.4km/h 7.4mph /  11.9km/h 53.2% 0in /  0.0mm
12:39 76.8 °F /  24.9 °C 58.3 °F /  14.6 °C 30in /  1016.2hPa NE 3.9mph /  6.3km/h 8.5mph /  13.7km/h 52.8% 0in /  0.0mm
12:44 76.8 °F /  24.9 °C 57.9 °F /  14.4 °C 30in /  1016.2hPa North 3.6mph /  5.8km/h 9.2mph /  14.8km/h 52% 0in /  0.0mm
12:49 76.8 °F /  24.9 °C 58.1 °F /  14.5 °C 30in /  1016.2hPa NNO 3.7mph /  6km/h 6.2mph /  10km/h 52.1% 0in /  0.0mm
12:54 77.4 °F /  25.2 °C 58.3 °F /  14.6 °C 30in /  1016.2hPa ENE 4mph /  6.4km/h 9.2mph /  14.8km/h 51.9% 0in /  0.0mm
12:59 77.4 °F /  25.2 °C 58.5 °F /  14.7 °C 30in /  1016.2hPa Este 4mph /  6.4km/h 6.2mph /  10km/h 52% 0in /  0.0mm
13:04 77.4 °F /  25.2 °C 58.1 °F /  14.5 °C 30in /  1016.2hPa NE 4mph /  6.4km/h 10.4mph /  16.7km/h 51.4% 0in /  0.0mm
13:09 77 °F /  25 °C 57.9 °F /  14.4 °C 30in /  1016.2hPa NE 4.3mph /  7km/h 9.7mph /  15.6km/h 52% 0in /  0.0mm
13:14 76.5 °F /  24.7 °C 57.7 °F /  14.3 °C 30in /  1016.1hPa ENE 5.2mph /  8.4km/h 10.4mph /  16.7km/h 52.4% 0in /  0.0mm
13:19 76.5 °F /  24.7 °C 58.1 °F /  14.5 °C 30in /  1016.1hPa Este 5.2mph /  8.4km/h 8.5mph /  13.7km/h 53% 0in /  0.0mm
13:24 77 °F /  25 °C 58.5 °F /  14.7 °C 30in /  1016.1hPa NNE 5.2mph /  8.4km/h 6.9mph /  11.1km/h 52.7% 0in /  0.0mm
13:29 77.5 °F /  25.3 °C 58.5 °F /  14.7 °C 30in /  1016.1hPa ENE 4.8mph /  7.8km/h 9.7mph /  15.6km/h 51.9% 0in /  0.0mm
13:34 77.7 °F /  25.4 °C 58.3 °F /  14.6 °C 30in /  1016.1hPa Este 4mph /  6.4km/h 8.1mph /  13km/h 51.3% 0in /  0.0mm
13:39 77.9 °F /  25.5 °C 58.3 °F /  14.6 °C 30in /  1016.1hPa SE 4.1mph /  6.6km/h 5.2mph /  8.4km/h 50.9% 0in /  0.0mm
13:44 78.1 °F /  25.6 °C 58.5 °F /  14.7 °C 30in /  1016.1hPa ENE 4.3mph /  6.9km/h 5.9mph /  9.5km/h 51% 0in /  0.0mm
13:49 78.4 °F /  25.8 °C 58.8 °F /  14.9 °C 30in /  1016.1hPa NNE 4.1mph /  6.6km/h 6.9mph /  11.1km/h 51.2% 0in /  0.0mm
13:54 78.6 °F /  25.9 °C 58.5 °F /  14.7 °C 30in /  1016.2hPa NO 3.6mph /  5.8km/h 8.1mph /  13km/h 50% 0in /  0.0mm
13:59 79 °F /  26.1 °C 58.6 °F /  14.8 °C 30in /  1016.2hPa NNE 3.4mph /  5.4km/h 8.1mph /  13km/h 49.7% 0in /  0.0mm
14:04 79 °F /  26.1 °C 58.3 °F /  14.6 °C 30in /  1016.2hPa ENE 2.9mph /  4.7km/h 8.1mph /  13km/h 49.1% 0in /  0.0mm
14:09 78.6 °F /  25.9 °C 58.1 °F /  14.5 °C 30in /  1016.2hPa NNE 2.9mph /  4.7km/h 4.6mph /  7.4km/h 49.2% 0in /  0.0mm
14:14 78.6 °F /  25.9 °C 58.1 °F /  14.5 °C 30in /  1016.0hPa NNO 2.9mph /  4.7km/h 9.2mph /  14.8km/h 49.6% 0in /  0.0mm
14:19 78.4 °F /  25.8 °C 58.3 °F /  14.6 °C 30in /  1016.0hPa NO 3mph /  4.8km/h 5.8mph /  9.3km/h 50% 0in /  0.0mm
14:24 78.4 °F /  25.8 °C 58.5 °F /  14.7 °C 30in /  1016.0hPa NNO 3.1mph /  5km/h 8.5mph /  13.7km/h 50.2% 0in /  0.0mm
14:29 78.4 °F /  25.8 °C 58.6 °F /  14.8 °C 30in /  1015.6hPa North 3.5mph /  5.7km/h 9.2mph /  14.8km/h 50.7% 0in /  0.0mm
14:34 78.4 °F /  25.8 °C 58.5 °F /  14.7 °C 30in /  1015.6hPa NNE 4.7mph /  7.6km/h 8.1mph /  13km/h 50.4% 0in /  0.0mm
14:39 78.4 °F /  25.8 °C 58.5 °F /  14.7 °C 30in /  1015.6hPa NNO 4.6mph /  7.4km/h 8.5mph /  13.7km/h 50.4% 0in /  0.0mm
14:44 78.4 °F /  25.8 °C 58.5 °F /  14.7 °C 30in /  1015.1hPa North 4.3mph /  6.9km/h 8.5mph /  13.7km/h 50.2% 0in /  0.0mm
14:49 78.4 °F /  25.8 °C 58.5 °F /  14.7 °C 30in /  1015.1hPa NO 4.2mph /  6.8km/h 5.9mph /  9.5km/h 50.2% 0in /  0.0mm
14:54 79 °F /  26.1 °C 58.3 °F /  14.6 °C 30in /  1015.1hPa North 4mph /  6.4km/h 9.2mph /  14.8km/h 49.3% 0in /  0.0mm
14:59 79 °F /  26.1 °C 58.5 °F /  14.7 °C 30in /  1015.1hPa NNE 4.1mph /  6.6km/h 8.7mph /  14km/h 49.3% 0in /  0.0mm
15:04 79 °F /  26.1 °C 58.1 °F /  14.5 °C 30in /  1015.1hPa NE 4.3mph /  6.9km/h 9.2mph /  14.8km/h 48.9% 0in /  0.0mm
15:09 79 °F /  26.1 °C 58.3 °F /  14.6 °C 30in /  1015.1hPa NE 4.6mph /  7.4km/h 8.1mph /  13km/h 49% 0in /  0.0mm
15:14 79 °F /  26.1 °C 58.5 °F /  14.7 °C 30in /  1014.8hPa NNE 5.2mph /  8.4km/h 10.2mph /  16.4km/h 49.3% 0in /  0.0mm
15:19 79.2 °F /  26.2 °C 58.1 °F /  14.5 °C 30in /  1014.8hPa NNE 5.5mph /  8.8km/h 12.7mph /  20.4km/h 48.7% 0in /  0.0mm
15:24 79 °F /  26.1 °C 58.1 °F /  14.5 °C 30in /  1014.8hPa NNE 6.2mph /  10km/h 11.5mph /  18.5km/h 49% 0in /  0.0mm
15:29 79 °F /  26.1 °C 58.3 °F /  14.6 °C 30in /  1014.5hPa NNE 6.2mph /  10km/h 9.7mph /  15.6km/h 49% 0in /  0.0mm
15:34 79 °F /  26.1 °C 57.7 °F /  14.3 °C 30in /  1014.5hPa NNE 6.2mph /  10km/h 8.1mph /  13km/h 48.2% 0in /  0.0mm
15:39 79.2 °F /  26.2 °C 58.1 °F /  14.5 °C 30in /  1014.6hPa NE 5.6mph /  9km/h 8.1mph /  13km/h 48.6% 0in /  0.0mm
15:44 79.2 °F /  26.2 °C 58.6 °F /  14.8 °C 30in /  1014.6hPa NNE 4.3mph /  6.9km/h 9.7mph /  15.6km/h 49.3% 0in /  0.0mm
15:49 79.2 °F /  26.2 °C 59.5 °F /  15.3 °C 30in /  1014.6hPa NE 4.8mph /  7.7km/h 12.7mph /  20.4km/h 51.3% 0in /  0.0mm
15:54 79 °F /  26.1 °C 59.9 °F /  15.5 °C 30in /  1014.6hPa NE 5.9mph /  9.5km/h 10.7mph /  17.2km/h 52% 0in /  0.0mm
15:59 79 °F /  26.1 °C 59.9 °F /  15.5 °C 30in /  1014.6hPa NE 5.7mph /  9.2km/h 10.4mph /  16.7km/h 51.9% 0in /  0.0mm
16:04 79 °F /  26.1 °C 59.9 °F /  15.5 °C 30in /  1014.6hPa NE 5.4mph /  8.7km/h 9.7mph /  15.6km/h 52.1% 0in /  0.0mm
16:09 79 °F /  26.1 °C 59.7 °F /  15.4 °C 30in /  1014.6hPa ENE 5.3mph /  8.6km/h 9.2mph /  14.8km/h 51.6% 0in /  0.0mm
16:14 79 °F /  26.1 °C 59.4 °F /  15.2 °C 30in /  1014.5hPa NE 5.2mph /  8.4km/h 11.5mph /  18.5km/h 51.2% 0in /  0.0mm
16:19 79 °F /  26.1 °C 59 °F /  15 °C 30in /  1014.5hPa NE 5.4mph /  8.7km/h 11.5mph /  18.5km/h 50.3% 0in /  0.0mm
16:24 79 °F /  26.1 °C 58.8 °F /  14.9 °C 30in /  1014.6hPa NE 5.9mph /  9.5km/h 9.2mph /  14.8km/h 50.2% 0in /  0.0mm
16:29 79 °F /  26.1 °C 58.8 °F /  14.9 °C 30in /  1014.6hPa NE 6.2mph /  10km/h 14mph /  22.5km/h 50.2% 0in /  0.0mm
16:34 78.8 °F /  26 °C 58.5 °F /  14.7 °C 30in /  1014.6hPa NE 6.9mph /  11.1km/h 11.5mph /  18.5km/h 49.8% 0in /  0.0mm
16:39 78.8 °F /  26 °C 58.3 °F /  14.6 °C 30in /  1014.6hPa NE 6.9mph /  11.1km/h 11.5mph /  18.5km/h 49.3% 0in /  0.0mm
16:44 79 °F /  26.1 °C 58.3 °F /  14.6 °C 30in /  1014.4hPa NE 6.9mph /  11.1km/h 11.5mph /  18.5km/h 49.1% 0in /  0.0mm
16:49 79 °F /  26.1 °C 58.3 °F /  14.6 °C 30in /  1014.4hPa NE 6.5mph /  10.4km/h 10.4mph /  16.7km/h 49% 0in /  0.0mm
16:54 79 °F /  26.1 °C 58.5 °F /  14.7 °C 30in /  1014.4hPa ENE 5.4mph /  8.7km/h 11.5mph /  18.5km/h 49.4% 0in /  0.0mm
16:59 79 °F /  26.1 °C 58.8 °F /  14.9 °C 30in /  1014.4hPa NE 5.7mph /  9.1km/h 9.2mph /  14.8km/h 50.2% 0in /  0.0mm
17:04 79 °F /  26.1 °C 58.8 °F /  14.9 °C 30in /  1014.4hPa ENE 6.2mph /  10km/h 11.4mph /  18.3km/h 50.1% 0in /  0.0mm
17:09 78.8 °F /  26 °C 58.6 °F /  14.8 °C 30in /  1014.4hPa NE 6.2mph /  10km/h 11.8mph /  19km/h 50% 0in /  0.0mm
17:14 78.6 °F /  25.9 °C 58.6 °F /  14.8 °C 30in /  1014.2hPa NE 6.2mph /  10km/h 9.7mph /  15.6km/h 50.3% 0in /  0.0mm
17:19 78.6 °F /  25.9 °C 58.5 °F /  14.7 °C 30in /  1014.2hPa NE 6.1mph /  9.8km/h 10.7mph /  17.2km/h 50% 0in /  0.0mm
17:24 78.4 °F /  25.8 °C 58.5 °F /  14.7 °C 30in /  1014.2hPa NE 5.9mph /  9.5km/h 9.7mph /  15.6km/h 50.3% 0in /  0.0mm
17:29 78.4 °F /  25.8 °C 58.8 °F /  14.9 °C 29.9in /  1013.7hPa NE 6mph /  9.6km/h 10.2mph /  16.4km/h 50.9% 0in /  0.0mm
17:34 78.4 °F /  25.8 °C 58.8 °F /  14.9 °C 29.9in /  1013.7hPa NE 6.2mph /  10km/h 13.8mph /  22.2km/h 51% 0in /  0.0mm
17:39 78.3 °F /  25.7 °C 59.2 °F /  15.1 °C 29.9in /  1013.7hPa NNE 6.6mph /  10.7km/h 11.5mph /  18.5km/h 52.1% 0in /  0.0mm
17:44 78.3 °F /  25.7 °C 59.7 °F /  15.4 °C 29.9in /  1013.2hPa NNE 7.6mph /  12.2km/h 8.5mph /  13.7km/h 53% 0in /  0.0mm
17:49 78.3 °F /  25.7 °C 59.7 °F /  15.4 °C 29.9in /  1013.2hPa NNE 7.1mph /  11.4km/h 10.7mph /  17.2km/h 52.9% 0in /  0.0mm
17:54 78.1 °F /  25.6 °C 59.5 °F /  15.3 °C 29.9in /  1013.2hPa NNE 5.9mph /  9.5km/h 9.2mph /  14.8km/h 53% 0in /  0.0mm
17:59 78.1 °F /  25.6 °C 59.5 °F /  15.3 °C 29.9in /  1013.0hPa NNE 5.7mph /  9.1km/h 8.1mph /  13km/h 53% 0in /  0.0mm
18:04 78.1 °F /  25.6 °C 59.7 °F /  15.4 °C 29.9in /  1013.0hPa NE 5.2mph /  8.4km/h 9.2mph /  14.8km/h 53.2% 0in /  0.0mm
18:09 78.1 °F /  25.6 °C 59.5 °F /  15.3 °C 29.9in /  1013.2hPa NNE 5.2mph /  8.4km/h 9.2mph /  14.8km/h 53% 0in /  0.0mm
18:14 78.1 °F /  25.6 °C 59.9 °F /  15.5 °C 29.9in /  1013.2hPa NNE 5.2mph /  8.4km/h 8.1mph /  13km/h 53.6% 0in /  0.0mm
18:19 78.1 °F /  25.6 °C 60.1 °F /  15.6 °C 29.9in /  1013.2hPa NE 5.2mph /  8.4km/h 6.9mph /  11.1km/h 54% 0in /  0.0mm
18:24 78.1 °F /  25.6 °C 60.1 °F /  15.6 °C 29.9in /  1013.4hPa NE 5.2mph /  8.4km/h 9.2mph /  14.8km/h 54% 0in /  0.0mm
18:29 78.1 °F /  25.6 °C 60.1 °F /  15.6 °C 29.9in /  1013.4hPa NE 5mph /  8.1km/h 9.2mph /  14.8km/h 53.9% 0in /  0.0mm
18:34 78.1 °F /  25.6 °C 60.1 °F /  15.6 °C 29.9in /  1013.4hPa NE 4.7mph /  7.6km/h 6.9mph /  11.1km/h 53.9% 0in /  0.0mm
18:39 78.1 °F /  25.6 °C 60.1 °F /  15.6 °C 29.9in /  1013.6hPa ENE 4.6mph /  7.4km/h 6.9mph /  11.1km/h 53.8% 0in /  0.0mm
18:44 78.1 °F /  25.6 °C 60.1 °F /  15.6 °C 29.9in /  1013.6hPa ENE 4.3mph /  6.9km/h 8.5mph /  13.7km/h 54% 0in /  0.0mm
18:49 78.1 °F /  25.6 °C 60.1 °F /  15.6 °C 29.9in /  1013.6hPa NE 4.2mph /  6.8km/h 6.2mph /  10km/h 54% 0in /  0.0mm
18:54 78.1 °F /  25.6 °C 60.1 °F /  15.6 °C 29.9in /  1013.6hPa NE 4mph /  6.4km/h 6.9mph /  11.1km/h 54% 0in /  0.0mm
18:59 78.1 °F /  25.6 °C 60.1 °F /  15.6 °C 29.9in /  1013.6hPa NE 4mph /  6.4km/h 9.7mph /  15.6km/h 54% 0in /  0.0mm
19:04 78.1 °F /  25.6 °C 60.1 °F /  15.6 °C 29.9in /  1013.6hPa NE 4mph /  6.4km/h 9.2mph /  14.8km/h 54% 0in /  0.0mm
19:09 78.1 °F /  25.6 °C 60.1 °F /  15.6 °C 29.9in /  1013.6hPa NNE 4.5mph /  7.3km/h 11.8mph /  19km/h 54.1% 0in /  0.0mm
19:14 78.1 °F /  25.6 °C 60.6 °F /  15.9 °C 29.9in /  1013.5hPa NE 5.9mph /  9.5km/h 9.7mph /  15.6km/h 55% 0in /  0.0mm
19:19 77.9 °F /  25.5 °C 60.4 °F /  15.8 °C 29.9in /  1013.5hPa NE 6mph /  9.7km/h 9.7mph /  15.6km/h 55% 0in /  0.0mm
19:24 77.9 °F /  25.5 °C 61 °F /  16.1 °C 29.9in /  1013.5hPa NE 6.4mph /  10.3km/h 10.7mph /  17.2km/h 56% 0in /  0.0mm
19:29 77.9 °F /  25.5 °C 61 °F /  16.1 °C 29.9in /  1013.4hPa NE 6.3mph /  10.2km/h 11.5mph /  18.5km/h 56% 0in /  0.0mm
19:34 77.9 °F /  25.5 °C 61 °F /  16.1 °C 29.9in /  1013.4hPa NE 6.2mph /  10km/h 10.4mph /  16.7km/h 56% 0in /  0.0mm
19:39 77.7 °F /  25.4 °C 61 °F /  16.1 °C 29.9in /  1013.8hPa NE 6.2mph /  10km/h 11.5mph /  18.5km/h 56.5% 0in /  0.0mm
19:44 77.7 °F /  25.4 °C 61.5 °F /  16.4 °C 29.9in /  1013.8hPa NE 6.2mph /  10km/h 10.7mph /  17.2km/h 57.5% 0in /  0.0mm
19:49 77.5 °F /  25.3 °C 62.2 °F /  16.8 °C 29.9in /  1013.8hPa Este 6.2mph /  10km/h 13mph /  20.9km/h 59.3% 0in /  0.0mm
19:54 77.2 °F /  25.1 °C 62.6 °F /  17 °C 29.9in /  1014.1hPa ENE 6.2mph /  10km/h 12.7mph /  20.4km/h 60.9% 0in /  0.0mm
19:59 76.6 °F /  24.8 °C 62.8 °F /  17.1 °C 29.9in /  1014.1hPa ENE 6.5mph /  10.4km/h 11.8mph /  19km/h 62.1% 0in /  0.0mm
20:04 76.5 °F /  24.7 °C 63 °F /  17.2 °C 29.9in /  1014.1hPa NE 6.9mph /  11.1km/h 11.5mph /  18.5km/h 63.1% 0in /  0.0mm
20:09 76.3 °F /  24.6 °C 63.3 °F /  17.4 °C 29.9in /  1014.1hPa ENE 6.8mph /  10.9km/h 13.8mph /  22.2km/h 64.2% 0in /  0.0mm
20:14 75.9 °F /  24.4 °C 63.5 °F /  17.5 °C 29.9in /  1014.0hPa ENE 6.4mph /  10.3km/h 13mph /  20.9km/h 65.3% 0in /  0.0mm
20:19 75.7 °F /  24.3 °C 63.9 °F /  17.7 °C 29.9in /  1014.0hPa NE 6.6mph /  10.6km/h 12.7mph /  20.4km/h 66.7% 0in /  0.0mm
20:24 75.6 °F /  24.2 °C 64.2 °F /  17.9 °C 29.9in /  1014.0hPa NE 6.9mph /  11.1km/h 11.8mph /  19km/h 67.7% 0in /  0.0mm
20:29 75.6 °F /  24.2 °C 64.4 °F /  18 °C 29.9in /  1013.9hPa NE 6.5mph /  10.4km/h 6.9mph /  11.1km/h 68.4% 0in /  0.0mm
20:34 75.4 °F /  24.1 °C 64.6 °F /  18.1 °C 29.9in /  1013.9hPa ENE 5.4mph /  8.7km/h 8.5mph /  13.7km/h 69% 0in /  0.0mm
20:39 75.4 °F /  24.1 °C 64.6 °F /  18.1 °C 30in /  1014.2hPa ENE 5mph /  8km/h 8.1mph /  13km/h 69.3% 0in /  0.0mm
20:44 75.2 °F /  24 °C 64.8 °F /  18.2 °C 30in /  1014.2hPa ENE 4mph /  6.4km/h 6.2mph /  10km/h 70% 0in /  0.0mm
20:49 75 °F /  23.9 °C 64.6 °F /  18.1 °C 30in /  1014.2hPa NE 3.9mph /  6.2km/h 5.9mph /  9.5km/h 70% 0in /  0.0mm
20:54 74.8 °F /  23.8 °C 64.8 °F /  18.2 °C 30in /  1014.3hPa NE 3.6mph /  5.8km/h 6.2mph /  10km/h 70.7% 0in /  0.0mm
20:59 74.8 °F /  23.8 °C 64.8 °F /  18.2 °C 30in /  1014.3hPa ENE 3.7mph /  6km/h 6.9mph /  11.1km/h 71% 0in /  0.0mm
21:04 74.7 °F /  23.7 °C 64.6 °F /  18.1 °C 30in /  1014.3hPa NE 4mph /  6.4km/h 8.1mph /  13km/h 71% 0in /  0.0mm
21:09 74.7 °F /  23.7 °C 64.9 °F /  18.3 °C 30in /  1014.4hPa NE 4.1mph /  6.6km/h 5.9mph /  9.5km/h 71.9% 0in /  0.0mm
21:14 74.5 °F /  23.6 °C 64.9 °F /  18.3 °C 30in /  1014.4hPa North 4.3mph /  6.9km/h 5.9mph /  9.5km/h 72% 0in /  0.0mm
21:19 74.5 °F /  23.6 °C 64.9 °F /  18.3 °C 30in /  1014.4hPa NNO 3.9mph /  6.3km/h 4.6mph /  7.4km/h 72% 0in /  0.0mm
21:24 74.5 °F /  23.6 °C 64.9 °F /  18.3 °C 30in /  1014.6hPa NNO 3.1mph /  5km/h 4.3mph /  6.9km/h 72% 0in /  0.0mm
21:29 74.3 °F /  23.5 °C 63.3 °F /  17.4 °C 30in /  1014.6hPa NO 2.9mph /  4.7km/h 7.4mph /  11.9km/h 68.8% 0in /  0.0mm
21:34 73.9 °F /  23.3 °C 61.5 °F /  16.4 °C 30in /  1014.6hPa NO 2.4mph /  3.9km/h 9.2mph /  14.8km/h 65.1% 0in /  0.0mm
21:39 73.9 °F /  23.3 °C 61 °F /  16.1 °C 30in /  1014.7hPa NO 3.1mph /  5km/h 9.2mph /  14.8km/h 64% 0in /  0.0mm
21:44 73.9 °F /  23.3 °C 61 °F /  16.1 °C 30in /  1014.7hPa ONO 4.7mph /  7.6km/h 10mph /  16.1km/h 64% 0in /  0.0mm
21:49 73.8 °F /  23.2 °C 60.8 °F /  16 °C 30in /  1014.7hPa NO 4.9mph /  7.9km/h 10.4mph /  16.7km/h 64% 0in /  0.0mm
21:54 73.8 °F /  23.2 °C 60.8 °F /  16 °C 30in /  1014.9hPa ONO 5.4mph /  8.7km/h 8.1mph /  13km/h 64% 0in /  0.0mm
21:59 73.8 °F /  23.2 °C 61 °F /  16.1 °C 30in /  1014.9hPa ONO 5mph /  8.1km/h 6.9mph /  11.1km/h 64.2% 0in /  0.0mm
22:04 73.8 °F /  23.2 °C 61.2 °F /  16.2 °C 30in /  1014.9hPa NO 4.3mph /  6.9km/h 9.7mph /  15.6km/h 65% 0in /  0.0mm
22:09 73.6 °F /  23.1 °C 61 °F /  16.1 °C 30in /  1014.9hPa NO 4.6mph /  7.4km/h 9.7mph /  15.6km/h 64.9% 0in /  0.0mm
22:14 73.6 °F /  23.1 °C 61.2 °F /  16.2 °C 30in /  1014.8hPa NO 5.2mph /  8.4km/h 8.1mph /  13km/h 65% 0in /  0.0mm
22:19 73.4 °F /  23 °C 61 °F /  16.1 °C 30in /  1014.8hPa NO 5.2mph /  8.4km/h 8.7mph /  14km/h 65% 0in /  0.0mm
22:24 73.2 °F /  22.9 °C 60.8 °F /  16 °C 30in /  1014.8hPa NO 5.2mph /  8.4km/h 9.2mph /  14.8km/h 65% 0in /  0.0mm
22:29 73.2 °F /  22.9 °C 60.6 °F /  15.9 °C 30in /  1014.8hPa NO 4.9mph /  7.9km/h 8.5mph /  13.7km/h 65% 0in /  0.0mm
22:34 73.2 °F /  22.9 °C 60.6 °F /  15.9 °C 30in /  1014.8hPa NO 4.3mph /  6.9km/h 6.9mph /  11.1km/h 65% 0in /  0.0mm
22:39 73 °F /  22.8 °C 60.6 °F /  15.9 °C 30in /  1014.8hPa NNO 4.3mph /  6.9km/h 7.4mph /  11.9km/h 65% 0in /  0.0mm
22:44 73 °F /  22.8 °C 60.6 °F /  15.9 °C 30in /  1014.8hPa NNO 4.3mph /  6.9km/h 5.4mph /  8.7km/h 65% 0in /  0.0mm
22:49 72.9 °F /  22.7 °C 60.4 °F /  15.8 °C 30in /  1014.8hPa NO 3.9mph /  6.2km/h 5.8mph /  9.3km/h 65% 0in /  0.0mm
22:54 72.9 °F /  22.7 °C 60.4 °F /  15.8 °C 30in /  1014.8hPa NO 2.9mph /  4.7km/h 5.2mph /  8.4km/h 65% 0in /  0.0mm
22:59 72.9 °F /  22.7 °C 60.4 °F /  15.8 °C 30in /  1014.8hPa ONO 2.5mph /  4.1km/h 4.6mph /  7.4km/h 65.3% 0in /  0.0mm
23:04 72.9 °F /  22.7 °C 60.8 °F /  16 °C 30in /  1014.8hPa ONO 1.8mph /  2.9km/h 5.4mph /  8.7km/h 66% 0in /  0.0mm
23:09 72.9 °F /  22.7 °C 60.6 °F /  15.9 °C 30in /  1015.1hPa NO 1.9mph /  3km/h 5.8mph /  9.3km/h 65.7% 0in /  0.0mm
23:14 72.9 °F /  22.7 °C 60.8 °F /  16 °C 30in /  1015.1hPa NO 2mph /  3.2km/h 6.4mph /  10.3km/h 65.9% 0in /  0.0mm
23:19 72.7 °F /  22.6 °C 60.6 °F /  15.9 °C 30in /  1015.1hPa NO 2.3mph /  3.7km/h 6.9mph /  11.1km/h 66% 0in /  0.0mm
23:24 72.7 °F /  22.6 °C 60.6 °F /  15.9 °C 30in /  1015.1hPa NO 3.1mph /  5km/h 5.2mph /  8.4km/h 66% 0in /  0.0mm
23:29 72.5 °F /  22.5 °C 60.6 °F /  15.9 °C 30in /  1015.1hPa NO 2.9mph /  4.7km/h 3.6mph /  5.8km/h 66% 0in /  0.0mm
23:34 72.3 °F /  22.4 °C 60.4 °F /  15.8 °C 30in /  1015.1hPa NNE 2.4mph /  3.9km/h 3.6mph /  5.8km/h 66% 0in /  0.0mm
23:39 72.3 °F /  22.4 °C 60.6 °F /  15.9 °C 30in /  1015.4hPa NNE 2.2mph /  3.6km/h 2.4mph /  3.9km/h 66.9% 0in /  0.0mm
23:44 72.1 °F /  22.3 °C 60.6 °F /  15.9 °C 30in /  1015.4hPa NNE 1.8mph /  2.9km/h   67% 0in /  0.0mm
23:49 72.1 °F /  22.3 °C 60.6 °F /  15.9 °C 30in /  1015.4hPa NNE 1.2mph /  2km/h 4.6mph /  7.4km/h 67% 0in /  0.0mm
23:54 72.1 °F /  22.3 °C 60.6 °F /  15.9 °C 30in /  1015.6hPa Calm   4.7mph /  7.6km/h 67% 0in /  0.0mm
23:59 72.1 °F /  22.3 °C 60.6 °F /  15.9 °C 30in /  1015.6hPa OSO 1mph /  1.6km/h 4.6mph /  7.4km/h 67% 0in /  0.0mm
Murcia-Puente Tocinos, España
Compliments of Weather Underground - 3.25 mb

La estación de MeteoMurcia.com, publica sus datos en los siguientes proyectos:

Weather Underground PWS IMURCIAP2 Meteoclimatic www.awekas.at

W3Counter
Web Analytics